createdAt,value
2019-05-11T00:00:37.606Z,9.32
2019-05-11T00:01:37.597Z,9.29
2019-05-11T00:02:37.593Z,9.36
2019-05-11T00:03:37.583Z,9.29
2019-05-11T00:04:37.581Z,9.25
2019-05-11T00:05:37.576Z,9.29
2019-05-11T00:06:37.565Z,9.31
2019-05-11T00:07:37.561Z,9.23
2019-05-11T00:08:37.559Z,9.25
2019-05-11T00:09:37.552Z,9.26
2019-05-11T00:10:37.557Z,9.29
2019-05-11T00:11:37.538Z,9.26
2019-05-11T00:12:37.533Z,9.29
2019-05-11T00:13:37.528Z,9.21
2019-05-11T00:14:37.522Z,9.19
2019-05-11T00:15:37.515Z,9.16
2019-05-11T00:16:37.510Z,9.21
2019-05-11T00:17:37.504Z,9.18
2019-05-11T00:18:37.497Z,9.14
2019-05-11T00:19:37.491Z,9.02
2019-05-11T00:20:37.486Z,9.08
2019-05-11T00:21:37.480Z,9.00
2019-05-11T00:22:37.475Z,8.95
2019-05-11T00:23:37.536Z,8.94
2019-05-11T00:24:37.473Z,8.92
2019-05-11T00:25:37.460Z,8.95
2019-05-11T00:26:37.450Z,8.81
2019-05-11T00:27:37.444Z,8.85
2019-05-11T00:28:37.440Z,8.74
2019-05-11T00:29:37.449Z,8.76
2019-05-11T00:30:37.427Z,8.81
2019-05-11T00:31:37.422Z,8.66
2019-05-11T00:32:37.418Z,8.69
2019-05-11T00:33:37.410Z,8.70
2019-05-11T00:34:37.403Z,8.53
2019-05-11T00:35:37.398Z,8.51
2019-05-11T00:36:37.392Z,8.60
2019-05-11T00:37:37.389Z,8.61
2019-05-11T00:38:37.378Z,8.51
2019-05-11T00:39:37.442Z,8.51
2019-05-11T00:40:37.371Z,8.45
2019-05-11T00:41:37.363Z,8.46
2019-05-11T00:42:37.359Z,8.34
2019-05-11T00:43:37.349Z,8.34
2019-05-11T00:44:37.343Z,8.30
2019-05-11T00:45:37.369Z,8.37
2019-05-11T00:46:37.407Z,8.28
2019-05-11T00:47:37.332Z,8.34
2019-05-11T00:48:37.326Z,8.33
2019-05-11T00:49:37.312Z,8.26
2019-05-11T00:50:39.819Z,8.20
2019-05-11T00:51:37.302Z,8.19
2019-05-11T00:52:37.295Z,8.12
2019-05-11T00:53:37.289Z,8.13
2019-05-11T00:54:37.281Z,8.24
2019-05-11T00:55:37.277Z,8.20
2019-05-11T00:56:37.271Z,8.16
2019-05-11T00:57:37.266Z,8.15
2019-05-11T00:58:37.257Z,8.05
2019-05-11T00:59:37.251Z,8.10
2019-05-11T01:00:37.253Z,8.12
2019-05-11T01:01:37.239Z,8.06
2019-05-11T01:02:37.236Z,8.06
2019-05-11T01:03:37.226Z,8.10
2019-05-11T01:04:37.239Z,8.01
2019-05-11T01:05:37.229Z,8.00
2019-05-11T01:06:37.207Z,8.05
2019-05-11T01:07:37.202Z,8.03
2019-05-11T01:08:37.195Z,8.03
2019-05-11T01:09:37.189Z,7.97
2019-05-11T01:10:42.068Z,8.05
2019-05-11T01:11:37.178Z,8.05
2019-05-11T01:12:37.171Z,7.97
2019-05-11T01:13:37.169Z,7.97
2019-05-11T01:14:37.157Z,7.91
2019-05-11T01:15:37.152Z,7.90
2019-05-11T01:16:37.145Z,7.88
2019-05-11T01:17:37.139Z,7.91
2019-05-11T01:18:37.131Z,7.76
2019-05-11T01:19:37.125Z,7.75
2019-05-11T01:20:37.119Z,7.79
2019-05-11T01:21:37.112Z,7.73
2019-05-11T01:22:37.134Z,7.76
2019-05-11T01:23:37.100Z,7.73
2019-05-11T01:24:37.094Z,7.77
2019-05-11T01:25:37.086Z,7.82
2019-05-11T01:26:37.089Z,7.77
2019-05-11T01:27:37.072Z,7.88
2019-05-11T01:28:37.067Z,7.75
2019-05-11T01:29:37.076Z,7.72
2019-05-11T01:30:38.751Z,7.58
2019-05-11T01:31:37.045Z,7.70
2019-05-11T01:32:37.050Z,7.76
2019-05-11T01:33:37.035Z,7.70
2019-05-11T01:34:37.021Z,7.73
2019-05-11T01:35:37.020Z,7.67
2019-05-11T01:36:37.017Z,7.66
2019-05-11T01:37:37.016Z,7.66
2019-05-11T01:38:37.002Z,7.56
2019-05-11T01:39:36.994Z,7.45
2019-05-11T01:40:36.989Z,7.54
2019-05-11T01:41:36.997Z,7.56
2019-05-11T01:42:36.975Z,7.51
2019-05-11T01:43:36.971Z,7.39
2019-05-11T01:44:36.961Z,7.42
2019-05-11T01:45:36.963Z,7.48
2019-05-11T01:46:36.949Z,7.38
2019-05-11T01:47:36.946Z,7.39
2019-05-11T01:48:36.936Z,7.39
2019-05-11T01:49:36.932Z,7.40
2019-05-11T01:50:36.931Z,7.45
2019-05-11T01:51:36.923Z,7.36
2019-05-11T01:52:36.911Z,7.31
2019-05-11T01:53:36.904Z,7.38
2019-05-11T01:54:36.895Z,7.32
2019-05-11T01:55:36.889Z,7.36
2019-05-11T01:56:36.883Z,7.31
2019-05-11T01:57:36.876Z,7.32
2019-05-11T01:58:36.869Z,7.31
2019-05-11T01:59:36.867Z,7.24
2019-05-11T02:00:36.857Z,7.32
2019-05-11T02:01:36.850Z,7.29
2019-05-11T02:02:36.844Z,7.32
2019-05-11T02:03:36.840Z,7.31
2019-05-11T02:04:36.831Z,7.20
2019-05-11T02:05:36.859Z,7.24
2019-05-11T02:06:36.815Z,7.21
2019-05-11T02:07:36.811Z,7.20
2019-05-11T02:08:36.795Z,7.20
2019-05-11T02:09:36.795Z,7.21
2019-05-11T02:10:36.787Z,7.21
2019-05-11T02:11:36.780Z,7.20
2019-05-11T02:12:36.774Z,7.24
2019-05-11T02:13:36.767Z,7.07
2019-05-11T02:14:36.759Z,7.13
2019-05-11T02:15:36.755Z,7.02
2019-05-11T02:16:36.752Z,6.89
2019-05-11T02:17:36.740Z,7.07
2019-05-11T02:18:36.731Z,7.10
2019-05-11T02:19:36.729Z,7.14
2019-05-11T02:20:36.719Z,6.97
2019-05-11T02:21:36.707Z,7.02
2019-05-11T02:22:36.704Z,7.07
2019-05-11T02:23:36.701Z,7.10
2019-05-11T02:24:36.690Z,7.13
2019-05-11T02:25:36.690Z,7.03
2019-05-11T02:26:36.678Z,6.99
2019-05-11T02:27:36.670Z,6.95
2019-05-11T02:28:36.665Z,6.95
2019-05-11T02:29:36.667Z,6.96
2019-05-11T02:30:36.648Z,6.93
2019-05-11T02:31:36.647Z,6.93
2019-05-11T02:32:36.634Z,6.95
2019-05-11T02:33:36.630Z,7.07
2019-05-11T02:34:36.622Z,6.96
2019-05-11T02:35:36.615Z,6.93
2019-05-11T02:36:36.613Z,6.92
2019-05-11T02:37:36.601Z,6.88
2019-05-11T02:38:36.586Z,6.87
2019-05-11T02:39:36.587Z,6.89
2019-05-11T02:40:36.588Z,6.82
2019-05-11T02:41:37.567Z,6.87
2019-05-11T02:42:36.566Z,6.87
2019-05-11T02:43:36.559Z,6.89
2019-05-11T02:44:36.561Z,6.87
2019-05-11T02:45:36.615Z,6.84
2019-05-11T02:46:36.538Z,6.92
2019-05-11T02:47:36.529Z,6.79
2019-05-11T02:48:36.524Z,6.93
2019-05-11T02:49:36.519Z,6.85
2019-05-11T02:50:36.507Z,6.79
2019-05-11T02:51:36.503Z,6.89
2019-05-11T02:52:36.495Z,6.93
2019-05-11T02:53:36.487Z,6.93
2019-05-11T02:54:36.479Z,6.95
2019-05-11T02:55:36.472Z,6.95
2019-05-11T02:56:36.474Z,6.92
2019-05-11T02:57:36.459Z,6.89
2019-05-11T02:58:36.451Z,6.88
2019-05-11T02:59:36.442Z,6.95
2019-05-11T03:00:36.436Z,6.96
2019-05-11T03:01:36.429Z,6.95
2019-05-11T03:02:36.423Z,7.10
2019-05-11T03:03:36.419Z,6.96
2019-05-11T03:04:36.413Z,7.06
2019-05-11T03:05:36.400Z,7.07
2019-05-11T03:06:36.393Z,7.11
2019-05-11T03:07:36.389Z,7.10
2019-05-11T03:08:36.391Z,6.96
2019-05-11T03:09:36.369Z,7.06
2019-05-11T03:10:36.371Z,6.96
2019-05-11T03:11:54.043Z,7.07
2019-05-11T03:12:36.358Z,6.97
2019-05-11T03:13:36.345Z,7.07
2019-05-11T03:14:36.337Z,7.05
2019-05-11T03:15:36.334Z,7.13
2019-05-11T03:16:36.320Z,7.07
2019-05-11T03:17:36.315Z,7.06
2019-05-11T03:18:36.319Z,7.02
2019-05-11T03:19:36.297Z,6.99
2019-05-11T03:20:36.292Z,6.93
2019-05-11T03:21:36.283Z,7.06
2019-05-11T03:22:36.283Z,7.06
2019-05-11T03:23:36.269Z,7.05
2019-05-11T03:24:36.258Z,6.95
2019-05-11T03:25:36.256Z,6.99
2019-05-11T03:26:36.253Z,6.96
2019-05-11T03:27:36.237Z,7.02
2019-05-11T03:28:36.231Z,7.11
2019-05-11T03:29:36.221Z,6.92
2019-05-11T03:30:36.229Z,7.02
2019-05-11T03:31:36.209Z,7.06
2019-05-11T03:32:36.264Z,7.11
2019-05-11T03:33:36.194Z,7.17
2019-05-11T03:34:36.186Z,7.17
2019-05-11T03:35:36.181Z,7.28
2019-05-11T03:36:36.173Z,7.20
2019-05-11T03:37:36.168Z,7.21
2019-05-11T03:38:36.153Z,7.25
2019-05-11T03:39:36.146Z,7.33
2019-05-11T03:40:36.142Z,7.38
2019-05-11T03:41:36.136Z,7.35
2019-05-11T03:42:36.145Z,7.45
2019-05-11T03:43:36.120Z,7.36
2019-05-11T03:44:36.114Z,7.42
2019-05-11T03:45:36.105Z,7.51
2019-05-11T03:46:36.100Z,7.57
2019-05-11T03:47:36.095Z,7.53
2019-05-11T03:48:36.084Z,7.77
2019-05-11T03:49:36.081Z,7.79
2019-05-11T03:50:36.069Z,7.79
2019-05-11T03:51:36.074Z,7.82
2019-05-11T03:52:36.056Z,7.79
2019-05-11T03:53:36.051Z,7.91
2019-05-11T03:54:36.043Z,7.94
2019-05-11T03:55:36.036Z,7.98
2019-05-11T03:56:36.025Z,7.97
2019-05-11T03:57:36.033Z,8.05
2019-05-11T03:58:36.011Z,8.03
2019-05-11T03:59:36.007Z,8.13
2019-05-11T04:00:36.004Z,8.08
2019-05-11T04:01:35.991Z,8.08
2019-05-11T04:02:36.005Z,8.19
2019-05-11T04:03:35.978Z,8.13
2019-05-11T04:04:35.970Z,8.18
2019-05-11T04:05:35.963Z,8.24
2019-05-11T04:06:35.957Z,8.26
2019-05-11T04:07:35.950Z,8.15
2019-05-11T04:08:35.944Z,8.15
2019-05-11T04:09:35.937Z,8.30
2019-05-11T04:10:35.932Z,8.31
2019-05-11T04:11:35.922Z,8.27
2019-05-11T04:12:36.035Z,8.33
2019-05-11T04:13:35.908Z,8.27
2019-05-11T04:14:35.906Z,8.41
2019-05-11T04:15:35.893Z,8.45
2019-05-11T04:16:35.889Z,8.44
2019-05-11T04:17:35.881Z,8.58
2019-05-11T04:18:35.876Z,8.66
2019-05-11T04:19:35.874Z,8.64
2019-05-11T04:20:35.857Z,8.76
2019-05-11T04:21:35.856Z,8.84
2019-05-11T04:22:35.850Z,8.84
2019-05-11T04:23:35.841Z,8.82
2019-05-11T04:24:35.832Z,8.91
2019-05-11T04:25:35.827Z,8.95
2019-05-11T04:26:35.816Z,9.04
2019-05-11T04:27:35.820Z,9.06
2019-05-11T04:28:35.801Z,9.11
2019-05-11T04:29:35.800Z,9.08
2019-05-11T04:30:35.794Z,9.14
2019-05-11T04:31:35.789Z,9.22
2019-05-11T04:32:35.778Z,9.26
2019-05-11T04:33:35.774Z,9.26
2019-05-11T04:34:35.775Z,9.32
2019-05-11T04:35:35.758Z,9.36
2019-05-11T04:36:35.752Z,9.44
2019-05-11T04:37:35.756Z,9.51
2019-05-11T04:38:35.744Z,9.54
2019-05-11T04:39:35.738Z,9.51
2019-05-11T04:40:35.727Z,9.66
2019-05-11T04:41:35.727Z,9.84
2019-05-11T04:42:53.381Z,9.86
2019-05-11T04:43:35.705Z,9.92
2019-05-11T04:44:35.706Z,10.12
2019-05-11T04:45:35.699Z,10.25
2019-05-11T04:46:35.690Z,10.28
2019-05-11T04:47:35.695Z,10.34
2019-05-11T04:48:35.677Z,10.38
2019-05-11T04:49:35.671Z,10.37
2019-05-11T04:50:35.664Z,10.51
2019-05-11T04:51:35.661Z,10.46
2019-05-11T04:52:35.653Z,10.46
2019-05-11T04:53:35.651Z,10.49
2019-05-11T04:54:35.640Z,10.53
2019-05-11T04:55:35.636Z,10.67
2019-05-11T04:56:35.631Z,10.68
2019-05-11T04:57:35.623Z,10.76
2019-05-11T04:58:35.623Z,10.86
2019-05-11T04:59:35.626Z,10.92
2019-05-11T05:00:35.610Z,11.12
2019-05-11T05:01:35.602Z,11.35
2019-05-11T05:02:35.591Z,11.99
2019-05-11T05:03:40.847Z,12.15
2019-05-11T05:04:35.581Z,12.36
2019-05-11T05:05:35.577Z,12.42
2019-05-11T05:06:38.826Z,12.67
2019-05-11T05:07:35.565Z,12.54
2019-05-11T05:08:35.561Z,12.37
2019-05-11T05:09:42.011Z,12.37
2019-05-11T05:10:35.547Z,12.32
2019-05-11T05:11:36.644Z,12.31
2019-05-11T05:12:35.543Z,12.22
2019-05-11T05:13:35.533Z,12.22
2019-05-11T05:14:35.527Z,12.20
2019-05-11T05:15:35.527Z,12.22
2019-05-11T05:16:35.517Z,12.10
2019-05-11T05:17:35.513Z,12.02
2019-05-11T05:18:35.505Z,11.77
2019-05-11T05:19:35.501Z,11.69
2019-05-11T05:20:35.488Z,11.52
2019-05-11T05:21:35.492Z,11.48
2019-05-11T05:22:35.492Z,11.55
2019-05-11T05:23:35.489Z,11.35
2019-05-11T05:24:35.478Z,11.43
2019-05-11T05:25:35.471Z,11.27
2019-05-11T05:26:35.471Z,11.08
2019-05-11T05:27:35.459Z,11.19
2019-05-11T05:28:35.455Z,11.17
2019-05-11T05:29:35.450Z,11.43
2019-05-11T05:30:35.445Z,11.81
2019-05-11T05:31:35.439Z,12.00
2019-05-11T05:32:35.438Z,12.06
2019-05-11T05:33:35.429Z,12.29
2019-05-11T05:34:35.424Z,12.28
2019-05-11T05:35:35.477Z,12.29
2019-05-11T05:36:35.414Z,12.28
2019-05-11T05:37:35.409Z,12.25
2019-05-11T05:38:35.406Z,12.43
2019-05-11T05:39:35.401Z,12.55
2019-05-11T05:40:35.397Z,13.01
2019-05-11T05:41:35.411Z,13.49
2019-05-11T05:42:35.383Z,14.03
2019-05-11T05:43:35.376Z,14.11
2019-05-11T05:44:35.372Z,13.86
2019-05-11T05:45:35.392Z,14.00
2019-05-11T05:46:35.365Z,14.30
2019-05-11T05:47:35.359Z,14.55
2019-05-11T05:48:35.358Z,14.69
2019-05-11T05:49:35.351Z,14.53
2019-05-11T05:50:35.345Z,14.86
2019-05-11T05:51:35.337Z,14.62
2019-05-11T05:52:35.337Z,14.77
2019-05-11T05:53:35.335Z,14.72
2019-05-11T05:54:35.326Z,14.86
2019-05-11T05:55:35.333Z,14.63
2019-05-11T05:56:35.320Z,14.11
2019-05-11T05:57:35.318Z,14.07
2019-05-11T05:58:35.344Z,13.93
2019-05-11T05:59:35.315Z,14.18
2019-05-11T06:00:35.304Z,14.53
2019-05-11T06:01:35.312Z,14.94
2019-05-11T06:02:35.303Z,14.78
2019-05-11T06:03:35.299Z,14.78
2019-05-11T06:04:35.290Z,14.82
2019-05-11T06:05:35.289Z,15.11
2019-05-11T06:06:35.292Z,15.37
2019-05-11T06:07:35.282Z,15.43
2019-05-11T06:08:35.285Z,14.99
2019-05-11T06:09:35.279Z,15.31
2019-05-11T06:10:35.267Z,15.00
2019-05-11T06:11:35.267Z,14.72
2019-05-11T06:12:35.265Z,14.91
2019-05-11T06:13:45.054Z,15.04
2019-05-11T06:14:35.262Z,15.09
2019-05-11T06:15:35.257Z,15.44
2019-05-11T06:16:35.263Z,15.97
2019-05-11T06:17:35.264Z,16.23
2019-05-11T06:18:35.245Z,15.77
2019-05-11T06:19:35.250Z,15.90
2019-05-11T06:20:35.248Z,15.42
2019-05-11T06:21:35.240Z,14.72
2019-05-11T06:22:35.235Z,14.73
2019-05-11T06:23:35.227Z,14.92
2019-05-11T06:24:35.232Z,15.59
2019-05-11T06:25:35.228Z,15.67
2019-05-11T06:26:35.223Z,15.46
2019-05-11T06:27:35.228Z,15.82
2019-05-11T06:28:35.222Z,15.97
2019-05-11T06:29:35.245Z,15.24
2019-05-11T06:30:35.220Z,15.35
2019-05-11T06:31:35.229Z,15.95
2019-05-11T06:32:35.222Z,15.92
2019-05-11T06:33:35.210Z,16.13
2019-05-11T06:34:35.209Z,16.23
2019-05-11T06:35:35.208Z,16.24
2019-05-11T06:36:35.202Z,16.15
2019-05-11T06:37:35.221Z,16.74
2019-05-11T06:38:35.201Z,17.20
2019-05-11T06:39:35.199Z,17.74
2019-05-11T06:40:35.203Z,17.89
2019-05-11T06:41:35.198Z,18.56
2019-05-11T06:42:35.201Z,18.47
2019-05-11T06:43:35.194Z,18.77
2019-05-11T06:44:35.192Z,18.92
2019-05-11T06:45:35.195Z,18.74
2019-05-11T06:46:35.416Z,19.09
2019-05-11T06:47:35.197Z,16.69
2019-05-11T06:48:35.205Z,16.43
2019-05-11T06:49:35.190Z,16.35
2019-05-11T06:50:35.194Z,16.16
2019-05-11T06:51:35.188Z,15.98
2019-05-11T06:52:35.186Z,16.20
2019-05-11T06:53:35.194Z,16.74
2019-05-11T06:54:35.188Z,17.04
2019-05-11T06:55:35.187Z,17.86
2019-05-11T06:56:35.184Z,17.19
2019-05-11T06:57:35.191Z,16.86
2019-05-11T06:58:35.183Z,16.83
2019-05-11T06:59:35.183Z,16.96
2019-05-11T07:00:35.186Z,16.43
2019-05-11T07:01:35.184Z,16.00
2019-05-11T07:02:35.186Z,16.10
2019-05-11T07:03:35.181Z,16.61
2019-05-11T07:04:35.179Z,16.78
2019-05-11T07:05:35.185Z,16.31
2019-05-11T07:06:35.186Z,16.39
2019-05-11T07:07:47.170Z,15.83
2019-05-11T07:08:35.179Z,16.17
2019-05-11T07:09:35.181Z,16.69
2019-05-11T07:10:35.181Z,16.49
2019-05-11T07:11:35.175Z,16.41
2019-05-11T07:12:35.177Z,16.60
2019-05-11T07:13:35.187Z,17.16
2019-05-11T07:14:35.185Z,17.72
2019-05-11T07:15:35.174Z,17.82
2019-05-11T07:16:35.183Z,16.72
2019-05-11T07:17:35.180Z,16.87
2019-05-11T07:18:35.176Z,16.50
2019-05-11T07:19:35.178Z,16.17
2019-05-11T07:20:49.504Z,16.28
2019-05-11T07:21:35.191Z,16.33
2019-05-11T07:22:35.176Z,16.75
2019-05-11T07:23:35.174Z,16.16
2019-05-11T07:24:35.191Z,15.97
2019-05-11T07:25:35.190Z,16.28
2019-05-11T07:26:35.182Z,16.78
2019-05-11T07:27:35.177Z,16.94
2019-05-11T07:28:35.186Z,15.91
2019-05-11T07:29:35.178Z,16.46
2019-05-11T07:30:35.175Z,16.33
2019-05-11T07:31:35.176Z,16.09
2019-05-11T07:32:35.175Z,16.32
2019-05-11T07:33:35.176Z,16.08
2019-05-11T07:34:35.172Z,16.65
2019-05-11T07:35:35.171Z,17.52
2019-05-11T07:36:35.177Z,17.22
2019-05-11T07:37:35.180Z,17.04
2019-05-11T07:38:35.176Z,17.49
2019-05-11T07:39:35.175Z,17.89
2019-05-11T07:40:35.173Z,17.89
2019-05-11T07:41:35.180Z,17.78
2019-05-11T07:42:37.676Z,17.33
2019-05-11T07:43:35.172Z,17.42
2019-05-11T07:44:38.811Z,17.45
2019-05-11T07:45:35.173Z,17.38
2019-05-11T07:46:37.540Z,17.15
2019-05-11T07:47:35.175Z,17.67
2019-05-11T07:48:35.181Z,18.10
2019-05-11T07:49:35.175Z,17.92
2019-05-11T07:50:35.179Z,18.44
2019-05-11T07:51:35.187Z,18.77
2019-05-11T07:52:37.545Z,18.35
2019-05-11T07:53:35.177Z,17.60
2019-05-11T07:54:35.182Z,17.24
2019-05-11T07:55:35.173Z,17.56
2019-05-11T07:56:35.186Z,17.20
2019-05-11T07:57:35.185Z,17.68
2019-05-11T07:58:35.179Z,18.43
2019-05-11T07:59:35.202Z,19.02
2019-05-11T08:00:37.460Z,18.66
2019-05-11T08:01:35.188Z,18.23
2019-05-11T08:02:35.188Z,18.29
2019-05-11T08:03:35.194Z,18.44
2019-05-11T08:04:37.712Z,18.63
2019-05-11T08:05:35.193Z,18.81
2019-05-11T08:06:35.196Z,19.02
2019-05-11T08:07:35.199Z,17.87
2019-05-11T08:08:35.297Z,18.00
2019-05-11T08:09:35.199Z,18.68
2019-05-11T08:10:35.199Z,19.37
2019-05-11T08:11:35.202Z,19.51
2019-05-11T08:12:35.205Z,18.93
2019-05-11T08:13:35.212Z,19.16
2019-05-11T08:14:55.161Z,19.96
2019-05-11T08:15:35.216Z,19.74
2019-05-11T08:16:35.214Z,21.03
2019-05-11T08:17:35.215Z,20.81
2019-05-11T08:18:35.221Z,20.24
2019-05-11T08:19:35.221Z,19.64
2019-05-11T08:20:35.232Z,18.80
2019-05-11T08:21:35.231Z,18.35
2019-05-11T08:22:37.552Z,18.59
2019-05-11T08:23:37.569Z,18.43
2019-05-11T08:24:37.603Z,17.89
2019-05-11T08:25:35.243Z,19.07
2019-05-11T08:26:35.234Z,19.04
2019-05-11T08:27:35.241Z,20.11
2019-05-11T08:28:35.244Z,19.45
2019-05-11T08:29:35.246Z,19.71
2019-05-11T08:30:35.247Z,19.69
2019-05-11T08:31:35.254Z,19.54
2019-05-11T08:32:35.256Z,19.73
2019-05-11T08:33:35.258Z,20.04
2019-05-11T08:34:35.262Z,20.21
2019-05-11T08:35:35.269Z,21.22
2019-05-11T08:36:37.682Z,21.80
2019-05-11T08:37:35.271Z,21.29
2019-05-11T08:38:37.596Z,20.22
2019-05-11T08:39:35.276Z,19.52
2019-05-11T08:40:35.282Z,20.47
2019-05-11T08:41:35.304Z,21.35
2019-05-11T08:42:37.653Z,21.69
2019-05-11T08:43:35.289Z,19.74
2019-05-11T08:44:37.840Z,20.24
2019-05-11T08:45:35.299Z,20.36
2019-05-11T08:46:35.299Z,21.35
2019-05-11T08:47:37.568Z,22.35
2019-05-11T08:48:35.300Z,22.59
2019-05-11T08:49:37.910Z,21.32
2019-05-11T08:50:35.308Z,21.29
2019-05-11T08:51:35.316Z,22.23
2019-05-11T08:52:35.319Z,21.70
2019-05-11T08:53:35.323Z,21.42
2019-05-11T08:54:35.330Z,20.03
2019-05-11T08:55:35.326Z,19.92
2019-05-11T08:56:35.333Z,20.39
2019-05-11T08:57:35.339Z,20.74
2019-05-11T08:58:37.819Z,21.07
2019-05-11T08:59:35.343Z,21.18
2019-05-11T09:00:35.341Z,20.96
2019-05-11T09:01:35.346Z,20.74
2019-05-11T09:02:35.350Z,20.10
2019-05-11T09:03:35.348Z,19.49
2019-05-11T09:04:39.260Z,19.37
2019-05-11T09:05:35.357Z,18.18
2019-05-11T09:06:37.459Z,17.52
2019-05-11T09:07:35.358Z,17.49
2019-05-11T09:08:35.358Z,17.63
2019-05-11T09:09:37.837Z,17.56
2019-05-11T09:10:37.627Z,17.29
2019-05-11T09:11:35.363Z,16.89
2019-05-11T09:12:35.360Z,16.61
2019-05-11T09:13:35.359Z,16.79
2019-05-11T09:14:35.361Z,16.66
2019-05-11T09:15:39.747Z,16.75
2019-05-11T09:16:35.361Z,16.58
2019-05-11T09:17:35.370Z,16.13
2019-05-11T09:18:35.356Z,15.92
2019-05-11T09:19:35.360Z,15.86
2019-05-11T09:20:37.656Z,16.08
2019-05-11T09:21:35.358Z,16.35
2019-05-11T09:22:35.357Z,16.31
2019-05-11T09:23:39.818Z,16.16
2019-05-11T09:24:35.359Z,16.10
2019-05-11T09:25:35.367Z,15.94
2019-05-11T09:26:35.353Z,15.88
2019-05-11T09:27:37.500Z,15.95
2019-05-11T09:28:35.366Z,15.92
2019-05-11T09:29:35.359Z,15.75
2019-05-11T09:30:37.665Z,15.92
2019-05-11T09:31:35.346Z,16.23
2019-05-11T09:32:35.359Z,16.35
2019-05-11T09:33:35.345Z,16.50
2019-05-11T09:34:37.634Z,16.58
2019-05-11T09:35:46.649Z,16.78
2019-05-11T09:36:35.350Z,16.83
2019-05-11T09:37:35.341Z,16.72
2019-05-11T09:38:35.332Z,16.53
2019-05-11T09:39:35.337Z,16.58
2019-05-11T09:40:35.334Z,16.58
2019-05-11T09:41:35.326Z,16.68
2019-05-11T09:42:35.330Z,16.56
2019-05-11T09:43:37.548Z,16.39
2019-05-11T09:44:35.328Z,16.69
2019-05-11T09:45:47.904Z,16.57
2019-05-11T09:46:35.327Z,16.66
2019-05-11T09:47:35.322Z,16.72
2019-05-11T09:48:37.629Z,16.57
2019-05-11T09:49:46.410Z,16.43
2019-05-11T09:50:35.320Z,16.53
2019-05-11T09:51:37.343Z,16.74
2019-05-11T09:52:35.323Z,16.93
2019-05-11T09:53:35.323Z,17.05
2019-05-11T09:54:35.327Z,17.20
2019-05-11T09:55:35.313Z,17.42
2019-05-11T09:56:35.307Z,17.29
2019-05-11T09:57:35.310Z,17.11
2019-05-11T09:58:35.305Z,17.24
2019-05-11T09:59:35.305Z,17.01
2019-05-11T10:00:35.302Z,16.79
2019-05-11T10:01:37.666Z,16.89
2019-05-11T10:02:35.304Z,16.94
2019-05-11T10:03:35.299Z,16.42
2019-05-11T10:04:35.299Z,16.50
2019-05-11T10:05:35.301Z,16.41
2019-05-11T10:06:35.296Z,16.56
2019-05-11T10:07:35.286Z,16.94
2019-05-11T10:08:35.308Z,16.79
2019-05-11T10:09:35.297Z,16.96
2019-05-11T10:10:35.303Z,17.12
2019-05-11T10:11:35.289Z,17.22
2019-05-11T10:12:35.284Z,17.12
2019-05-11T10:13:35.284Z,17.15
2019-05-11T10:14:35.292Z,16.93
2019-05-11T10:15:35.280Z,16.89
2019-05-11T10:16:35.276Z,17.15
2019-05-11T10:17:35.281Z,17.29
2019-05-11T10:18:35.282Z,17.51
2019-05-11T10:19:35.275Z,17.51
2019-05-11T10:20:35.277Z,17.57
2019-05-11T10:21:35.273Z,17.82
2019-05-11T10:22:35.272Z,17.74
2019-05-11T10:23:35.270Z,17.83
2019-05-11T10:24:35.273Z,17.65
2019-05-11T10:25:35.279Z,17.14
2019-05-11T10:26:35.269Z,16.99
2019-05-11T10:27:35.268Z,17.04
2019-05-11T10:28:35.261Z,16.72
2019-05-11T10:29:35.272Z,16.54
2019-05-11T10:30:35.264Z,16.57
2019-05-11T10:31:35.271Z,16.38
2019-05-11T10:32:37.745Z,16.15
2019-05-11T10:33:35.260Z,16.24
2019-05-11T10:34:35.259Z,16.36
2019-05-11T10:35:37.670Z,16.64
2019-05-11T10:36:35.261Z,16.76
2019-05-11T10:37:35.263Z,17.04
2019-05-11T10:38:35.252Z,17.08
2019-05-11T10:39:35.254Z,17.36
2019-05-11T10:40:35.252Z,17.46
2019-05-11T10:41:35.253Z,17.46
2019-05-11T10:42:37.733Z,17.48
2019-05-11T10:43:35.248Z,17.29
2019-05-11T10:44:35.245Z,17.34
2019-05-11T10:45:37.741Z,17.56
2019-05-11T10:46:35.241Z,17.38
2019-05-11T10:47:35.243Z,17.01
2019-05-11T10:48:35.245Z,17.11
2019-05-11T10:49:35.240Z,17.31
2019-05-11T10:50:35.237Z,17.26
2019-05-11T10:51:35.236Z,17.31
2019-05-11T10:52:37.256Z,16.99
2019-05-11T10:53:35.239Z,16.99
2019-05-11T10:54:35.234Z,16.99
2019-05-11T10:55:35.235Z,16.86
2019-05-11T10:56:35.233Z,16.65
2019-05-11T10:57:35.231Z,16.56
2019-05-11T10:58:35.230Z,16.56
2019-05-11T10:59:35.226Z,16.76
2019-05-11T11:00:35.226Z,16.74
2019-05-11T11:01:35.223Z,16.78
2019-05-11T11:02:35.234Z,16.83
2019-05-11T11:03:37.592Z,16.89
2019-05-11T11:04:35.221Z,16.96
2019-05-11T11:05:35.222Z,16.86
2019-05-11T11:06:35.225Z,16.76
2019-05-11T11:07:35.224Z,16.94
2019-05-11T11:08:35.218Z,17.09
2019-05-11T11:09:35.213Z,16.90
2019-05-11T11:10:35.213Z,16.68
2019-05-11T11:11:35.215Z,16.64
2019-05-11T11:12:35.219Z,16.56
2019-05-11T11:13:35.213Z,16.72
2019-05-11T11:14:37.521Z,16.99
2019-05-11T11:15:35.208Z,17.05
2019-05-11T11:16:39.670Z,17.16
2019-05-11T11:17:35.214Z,17.06
2019-05-11T11:18:35.203Z,16.91
2019-05-11T11:19:35.202Z,16.69
2019-05-11T11:20:35.210Z,16.43
2019-05-11T11:21:35.204Z,16.57
2019-05-11T11:22:40.227Z,16.43
2019-05-11T11:23:35.195Z,16.46
2019-05-11T11:24:37.426Z,16.49
2019-05-11T11:25:37.488Z,16.33
2019-05-11T11:26:35.193Z,16.26
2019-05-11T11:27:35.193Z,16.16
2019-05-11T11:28:35.194Z,16.28
2019-05-11T11:29:35.191Z,16.35
2019-05-11T11:30:35.193Z,16.41
2019-05-11T11:31:35.186Z,16.31
2019-05-11T11:32:35.181Z,16.64
2019-05-11T11:33:35.180Z,16.76
2019-05-11T11:34:35.177Z,16.94
2019-05-11T11:35:35.177Z,17.26
2019-05-11T11:36:37.486Z,17.39
2019-05-11T11:37:35.174Z,17.48
2019-05-11T11:38:35.181Z,16.94
2019-05-11T11:39:35.171Z,16.79
2019-05-11T11:40:35.173Z,16.79
2019-05-11T11:41:35.170Z,16.43
2019-05-11T11:42:35.170Z,16.35
2019-05-11T11:43:37.607Z,16.39
2019-05-11T11:44:35.178Z,16.58
2019-05-11T11:45:35.164Z,16.65
2019-05-11T11:46:50.375Z,16.69
2019-05-11T11:47:35.167Z,16.79
2019-05-11T11:48:35.156Z,16.89
2019-05-11T11:49:35.155Z,16.49
2019-05-11T11:50:37.560Z,16.49
2019-05-11T11:51:35.158Z,16.41
2019-05-11T11:52:35.155Z,16.49
2019-05-11T11:53:35.152Z,16.76
2019-05-11T11:54:35.150Z,16.94
2019-05-11T11:55:35.154Z,17.20
2019-05-11T11:56:35.155Z,16.89
2019-05-11T11:57:35.147Z,16.91
2019-05-11T11:58:35.142Z,16.81
2019-05-11T11:59:35.142Z,16.54
2019-05-11T12:00:35.143Z,16.56
2019-05-11T12:01:35.141Z,16.41
2019-05-11T12:02:35.138Z,16.57
2019-05-11T12:03:35.138Z,16.75
2019-05-11T12:04:35.139Z,16.79
2019-05-11T12:05:35.130Z,16.97
2019-05-11T12:06:35.133Z,17.11
2019-05-11T12:07:35.127Z,17.16
2019-05-11T12:08:35.132Z,16.86
2019-05-11T12:09:35.129Z,16.69
2019-05-11T12:10:35.129Z,16.79
2019-05-11T12:11:35.127Z,16.72
2019-05-11T12:12:35.130Z,16.58
2019-05-11T12:13:35.126Z,16.76
2019-05-11T12:14:35.131Z,16.99
2019-05-11T12:15:35.120Z,17.20
2019-05-11T12:16:35.120Z,17.29
2019-05-11T12:17:35.115Z,17.46
2019-05-11T12:18:35.112Z,17.59
2019-05-11T12:19:35.117Z,17.34
2019-05-11T12:20:35.135Z,16.99
2019-05-11T12:21:35.112Z,17.06
2019-05-11T12:22:35.110Z,17.22
2019-05-11T12:23:35.099Z,17.02
2019-05-11T12:24:37.412Z,16.76
2019-05-11T12:25:39.830Z,16.56
2019-05-11T12:26:35.107Z,16.76
2019-05-11T12:27:35.101Z,16.96
2019-05-11T12:28:35.100Z,17.20
2019-05-11T12:29:35.103Z,17.42
2019-05-11T12:30:35.098Z,17.15
2019-05-11T12:31:35.098Z,16.71
2019-05-11T12:32:35.095Z,16.81
2019-05-11T12:33:35.095Z,16.96
2019-05-11T12:34:37.170Z,16.56
2019-05-11T12:35:35.091Z,16.46
2019-05-11T12:36:35.087Z,16.43
2019-05-11T12:37:35.089Z,16.51
2019-05-11T12:38:35.089Z,16.43
2019-05-11T12:39:35.084Z,16.65
2019-05-11T12:40:35.086Z,16.79
2019-05-11T12:41:35.083Z,16.94
2019-05-11T12:42:35.081Z,17.02
2019-05-11T12:43:35.086Z,17.01
2019-05-11T12:44:35.083Z,16.42
2019-05-11T12:45:35.077Z,16.57
2019-05-11T12:46:36.782Z,16.42
2019-05-11T12:47:35.074Z,16.42
2019-05-11T12:48:35.073Z,16.46
2019-05-11T12:49:35.070Z,16.43
2019-05-11T12:50:35.067Z,16.35
2019-05-11T12:51:35.060Z,16.35
2019-05-11T12:52:35.065Z,16.42
2019-05-11T12:53:35.063Z,16.46
2019-05-11T12:54:35.063Z,16.42
2019-05-11T12:55:35.071Z,16.42
2019-05-11T12:56:35.060Z,16.39
2019-05-11T12:57:35.061Z,16.46
2019-05-11T12:58:35.055Z,16.38
2019-05-11T12:59:35.045Z,16.20
2019-05-11T13:00:35.053Z,15.97
2019-05-11T13:01:35.051Z,15.83